Coalfield, TN (37719)

10:09 PM EDT on May 28, 2015 (GMT -0400)
Eyman Osage Rd | | Change Station
CLOSE
Current Station
Personal Weather Station
Location: Oak Ridge, TN
Elevation: 1109 ft
Nearby Weather Stations

Elev 1109 ft 36.03 °N, 84.26 °W | Updated 2 minutes ago

Overcast
Overcast
70.0 °F
Feels Like 70.0 °F
N
4.2
Wind Variable Wind from North

Today
High -- | Low -- °F
--% Chance of Precip.
Yesterday
High -- | Low -- °F
Precip. -- in
6:23 AM 8:46 PM
Waxing Gibbous, 80% visible
Pressure 30.18 in
Visibility 10.0 miles
Clouds Few 3100 ft
Mostly Cloudy 4300 ft
Dew Point 66 °F
Humidity 86%
Rainfall 0.00 in
Snow Depth Not available.
UV 0 out of 12
Pollen 6.20 out of 12
Air Quality Not available.
Flu Activity Sporadic
METAR KOQT 290153Z AUTO 27007KT 230V300 10SM FEW031 BKN043 23/17 A3022 RMK AO2 SLP220 T02330172

More Conditions Fewer Conditions

Pressure 30.18 in
Visibility 10.0 miles
Clouds Few 3100 ft
Mostly Cloudy 4300 ft
Dew Point 66 °F
Humidity 86%
Rainfall 0.00 in
Snow Depth Not available.
UV 0 out of 12
Pollen 6.20 out of 12
Air Quality Not available.
Flu Activity Sporadic
METAR KOQT 290153Z AUTO 27007KT 230V300 10SM FEW031 BKN043 23/17 A3022 RMK AO2 SLP220 T02330172

More Conditions Fewer Conditions

10-Day Weather Forecast

Almanac

Astronomy

May. 28, 2015 Rise Set
Actual Time
Civil Twilight
Nautical Twilight
Astronomical Twilight
Moon
Length of Visible Light
Length of Day
Tomorrow will be .
, % of the Moon is Illuminated

Today's Extremes

State Highs State Lows

Community

WunderPhotos

Upload Photos

1,825,125 photos uploaded!

WunderBlogs® & News

Nearby

Air Quality

  Air Quality AQ Index Pollutant
Not available.

Snow Depth

Station Depth Elevation

Earthquake Activity

City Distance Mag. Time & Date
Minimum magnitude displayed is 2.5.

Coastal Water Temperatures

Place Temperature

Stations

Nearby Weather Stations

Station Location Temp. Windchill Dew Point Humidity Wind Precip. Elev Updated Type